LGAV Airport Information

Runway Information
Runway 03L Length 12467 ft width 148 ft
Elevation 255 ft Threshold 984 ft Heading 37
Runway 21R Length 12467 ft Width 148 ft
Elevation 282 ft Threshold 984 ft Heading 217
Runway 03R Length 13123 ft width 148 ft
Elevation 271 ft Threshold 984 ft Heading 37
Runway 21L Length 13123 ft Width 148 ft
Elevation 303 ft Threshold 984 ft Heading 217
Airport Frequencies
Type APP Name ATHINAI AP Frequency 126.575 MHZ
Type ARR Name ATHINAI AR Frequency 132.975 MHZ
Type ATIS Name ATIS Frequency 136.125 MHZ
Type CLD Name CLNC DEL Frequency 118.675 MHZ
Type DEP Name ATHINAI DE Frequency 128.95 MHZ
Type DIR Name ATHINAI DI Frequency 121.4 MHZ
Type GND Name GND Frequency 121.75 MHZ
Type INFO Name INFO Frequency 136.025 MHZ
Type PMSV Name ATHINAI VO Frequency 127.8 MHZ
Type RDO Name RDO Frequency 563.7 MHZ
Type TWR Name TWR Frequency 136.275 MHZ
Airport Navaids
Type VOR-DME Name Eleftherios Venizelos Frequency 109600 KHZ
Type VOR-DME Name Eleftherios Venizelos Frequency 117500 KHZ
Airport Weather Information & NOTAM
ADDS - METARS form results

(1116 UTC 26 January 2022)
Data provider http://aviationweather.gov/metar/data/
 
METAR text: LGAV 261050Z 30012KT 9999 FEW030 04/M06 Q1024 NOSIG
Conditions at: LGAV (ATHENS/ELEF-VEN , GR) observed 1050 UTC 26 January 2022
Temperature: 4.0°C (39°F)
Dewpoint: -6.0°C (21°F) [RH = 48%]
Pressure (altimeter): 30.24 inches Hg (1024.0 mb)
Winds: from the WNW (300 degrees) at 14 MPH (12 knots; 6.2 m/s)
Visibility: 6 or more miles (10+ km)
Ceiling: at least 12,000 feet AGL
Clouds: few clouds at 3000 feet AGL
Weather: no significant weather observed at this time

METAR text: LGAV 261020Z 30013KT 9999 FEW030 04/M08 Q1024 NOSIG
Conditions at: LGAV (ATHENS/ELEF-VEN , GR) observed 1020 UTC 26 January 2022
Temperature: 4.0°C (39°F)
Dewpoint: -8.0°C (18°F) [RH = 41%]
Pressure (altimeter): 30.24 inches Hg (1024.0 mb)
Winds: from the WNW (300 degrees) at 15 MPH (13 knots; 6.7 m/s)
Visibility: 6 or more miles (10+ km)
Ceiling: at least 12,000 feet AGL
Clouds: few clouds at 3000 feet AGL
Weather: no significant weather observed at this time

Forecast for: LGAV (ATHENS/ELEF-VEN , GR)
Text: TAF LGAV 261100Z 2612/2712 34014KT 9999 FEW020 SCT030
Forecast period: 1200 UTC 26 January 2022 to 1200 UTC 27 January 2022
Forecast type: FROM: standard forecast or significant change
Winds: from the NNW (340 degrees) at 16 MPH (14 knots; 7.2 m/s)
Visibility: 6 or more miles (10+ km)
Ceiling: at least 12,000 feet AGL
Clouds: few clouds at 2000 feet AGL
scattered clouds at 3000 feet AGL
Weather: no significant weather forecast for this period
Text: TEMPO 2612/2614 SCT020 SCT040
Forecast period: 1200 to 1400 UTC 26 January 2022
Forecast type: TEMPORARY: The following changes expected for less than half the time period
Visibility: missing
Ceiling: at least 12,000 feet AGL
Clouds: scattered clouds at 2000 feet AGL
scattered clouds at 4000 feet AGL
Weather: no significant weather forecast for this period